sensor_id;sensor_type;location;lat;lon;timestamp;temperature;humidity
24103;DHT22;12278;53.058;9.028;2024-01-30T00:01:12;4.90;99.90
24103;DHT22;12278;53.058;9.028;2024-01-30T00:05:12;4.90;99.90
24103;DHT22;12278;53.058;9.028;2024-01-30T00:09:13;4.90;99.90
24103;DHT22;12278;53.058;9.028;2024-01-30T00:13:14;4.80;99.90
24103;DHT22;12278;53.058;9.028;2024-01-30T00:17:18;4.80;99.90
24103;DHT22;12278;53.058;9.028;2024-01-30T00:21:20;4.70;99.90
24103;DHT22;12278;53.058;9.028;2024-01-30T00:25:21;4.70;99.90
24103;DHT22;12278;53.058;9.028;2024-01-30T00:29:22;4.70;99.90
24103;DHT22;12278;53.058;9.028;2024-01-30T00:33:23;4.70;99.90
24103;DHT22;12278;53.058;9.028;2024-01-30T00:37:23;4.60;99.90
24103;DHT22;12278;53.058;9.028;2024-01-30T00:41:24;4.70;99.90
24103;DHT22;12278;53.058;9.028;2024-01-30T00:45:25;4.70;99.90
24103;DHT22;12278;53.058;9.028;2024-01-30T00:49:25;4.70;99.90
24103;DHT22;12278;53.058;9.028;2024-01-30T00:53:26;4.70;99.90
24103;DHT22;12278;53.058;9.028;2024-01-30T00:57:27;4.70;99.90
24103;DHT22;12278;53.058;9.028;2024-01-30T01:01:27;4.80;99.90
24103;DHT22;12278;53.058;9.028;2024-01-30T01:05:28;4.80;99.90
24103;DHT22;12278;53.058;9.028;2024-01-30T01:09:29;4.80;99.90
24103;DHT22;12278;53.058;9.028;2024-01-30T01:13:29;4.80;99.90
24103;DHT22;12278;53.058;9.028;2024-01-30T01:17:30;4.80;99.90
24103;DHT22;12278;53.058;9.028;2024-01-30T01:21:30;4.80;99.90
24103;DHT22;12278;53.058;9.028;2024-01-30T01:25:31;4.80;99.90
24103;DHT22;12278;53.058;9.028;2024-01-30T01:29:31;4.90;99.90
24103;DHT22;12278;53.058;9.028;2024-01-30T01:33:32;4.90;99.90
24103;DHT22;12278;53.058;9.028;2024-01-30T01:37:33;4.90;99.90
24103;DHT22;12278;53.058;9.028;2024-01-30T01:41:34;4.90;99.90
24103;DHT22;12278;53.058;9.028;2024-01-30T01:45:35;4.90;99.90
24103;DHT22;12278;53.058;9.028;2024-01-30T01:49:35;5.00;99.90
24103;DHT22;12278;53.058;9.028;2024-01-30T01:53:36;5.00;99.90
24103;DHT22;12278;53.058;9.028;2024-01-30T01:57:36;5.10;99.90
24103;DHT22;12278;53.058;9.028;2024-01-30T02:01:37;5.10;99.90
24103;DHT22;12278;53.058;9.028;2024-01-30T02:05:40;5.00;99.90
24103;DHT22;12278;53.058;9.028;2024-01-30T02:09:41;5.10;99.90
24103;DHT22;12278;53.058;9.028;2024-01-30T02:13:42;5.10;99.90
24103;DHT22;12278;53.058;9.028;2024-01-30T02:17:43;5.10;99.90
24103;DHT22;12278;53.058;9.028;2024-01-30T02:21:44;5.10;99.90
24103;DHT22;12278;53.058;9.028;2024-01-30T02:25:45;5.00;99.90
24103;DHT22;12278;53.058;9.028;2024-01-30T02:29:47;5.00;99.90
24103;DHT22;12278;53.058;9.028;2024-01-30T02:33:47;5.00;99.90
24103;DHT22;12278;53.058;9.028;2024-01-30T02:37:48;5.00;99.90
24103;DHT22;12278;53.058;9.028;2024-01-30T02:41:49;5.00;99.90
24103;DHT22;12278;53.058;9.028;2024-01-30T02:45:49;5.10;99.90
24103;DHT22;12278;53.058;9.028;2024-01-30T02:49:50;5.00;99.90
24103;DHT22;12278;53.058;9.028;2024-01-30T02:53:51;5.00;99.90
24103;DHT22;12278;53.058;9.028;2024-01-30T02:57:51;4.90;99.90
24103;DHT22;12278;53.058;9.028;2024-01-30T03:01:52;4.90;99.90
24103;DHT22;12278;53.058;9.028;2024-01-30T03:05:53;4.90;99.90
24103;DHT22;12278;53.058;9.028;2024-01-30T03:09:53;4.90;99.90
24103;DHT22;12278;53.058;9.028;2024-01-30T03:13:55;4.90;99.90
24103;DHT22;12278;53.058;9.028;2024-01-30T03:17:56;4.80;99.90
24103;DHT22;12278;53.058;9.028;2024-01-30T03:21:57;4.80;99.90
24103;DHT22;12278;53.058;9.028;2024-01-30T03:25:57;4.70;99.90
24103;DHT22;12278;53.058;9.028;2024-01-30T03:29:58;4.60;99.90
24103;DHT22;12278;53.058;9.028;2024-01-30T03:33:59;4.60;99.90
24103;DHT22;12278;53.058;9.028;2024-01-30T03:37:59;4.50;99.90
24103;DHT22;12278;53.058;9.028;2024-01-30T03:42:00;4.50;99.90
24103;DHT22;12278;53.058;9.028;2024-01-30T03:46:01;4.50;99.90
24103;DHT22;12278;53.058;9.028;2024-01-30T03:50:03;4.50;99.90
24103;DHT22;12278;53.058;9.028;2024-01-30T03:54:05;4.50;99.90
24103;DHT22;12278;53.058;9.028;2024-01-30T03:58:05;4.50;99.90
24103;DHT22;12278;53.058;9.028;2024-01-30T04:02:06;4.50;99.90
24103;DHT22;12278;53.058;9.028;2024-01-30T04:06:07;4.50;99.90
24103;DHT22;12278;53.058;9.028;2024-01-30T04:10:09;4.60;99.90
24103;DHT22;12278;53.058;9.028;2024-01-30T04:14:10;4.60;99.90
24103;DHT22;12278;53.058;9.028;2024-01-30T04:18:11;4.60;99.90
24103;DHT22;12278;53.058;9.028;2024-01-30T04:22:11;4.60;99.90
24103;DHT22;12278;53.058;9.028;2024-01-30T04:26:12;4.60;99.90
24103;DHT22;12278;53.058;9.028;2024-01-30T04:30:13;4.60;99.90
24103;DHT22;12278;53.058;9.028;2024-01-30T04:34:13;4.60;99.90
24103;DHT22;12278;53.058;9.028;2024-01-30T04:38:14;4.70;99.90
24103;DHT22;12278;53.058;9.028;2024-01-30T04:42:15;4.70;99.90
24103;DHT22;12278;53.058;9.028;2024-01-30T04:46:15;4.70;99.90
24103;DHT22;12278;53.058;9.028;2024-01-30T04:50:16;4.80;99.90
24103;DHT22;12278;53.058;9.028;2024-01-30T04:54:16;4.80;99.90
24103;DHT22;12278;53.058;9.028;2024-01-30T04:58:18;4.90;99.90
24103;DHT22;12278;53.058;9.028;2024-01-30T05:02:18;5.00;99.90
24103;DHT22;12278;53.058;9.028;2024-01-30T05:06:25;5.00;99.90
24103;DHT22;12278;53.058;9.028;2024-01-30T05:10:26;5.00;99.90
24103;DHT22;12278;53.058;9.028;2024-01-30T05:14:29;5.10;99.90
24103;DHT22;12278;53.058;9.028;2024-01-30T05:18:29;5.10;99.90
24103;DHT22;12278;53.058;9.028;2024-01-30T05:22:30;5.20;99.90
24103;DHT22;12278;53.058;9.028;2024-01-30T05:26:30;5.30;99.90
24103;DHT22;12278;53.058;9.028;2024-01-30T05:30:31;5.30;99.90
24103;DHT22;12278;53.058;9.028;2024-01-30T05:34:32;5.40;99.90
24103;DHT22;12278;53.058;9.028;2024-01-30T05:38:33;5.30;99.90
24103;DHT22;12278;53.058;9.028;2024-01-30T05:42:34;5.30;99.90
24103;DHT22;12278;53.058;9.028;2024-01-30T05:46:35;5.20;99.90
24103;DHT22;12278;53.058;9.028;2024-01-30T05:50:36;5.20;99.90
24103;DHT22;12278;53.058;9.028;2024-01-30T05:54:36;5.20;99.90
24103;DHT22;12278;53.058;9.028;2024-01-30T05:58:37;5.20;99.90
24103;DHT22;12278;53.058;9.028;2024-01-30T06:02:38;5.20;99.90
24103;DHT22;12278;53.058;9.028;2024-01-30T06:06:38;5.20;99.90
24103;DHT22;12278;53.058;9.028;2024-01-30T06:10:39;5.20;99.90
24103;DHT22;12278;53.058;9.028;2024-01-30T06:14:40;5.20;99.90
24103;DHT22;12278;53.058;9.028;2024-01-30T06:18:42;5.20;99.90
24103;DHT22;12278;53.058;9.028;2024-01-30T06:22:43;5.30;99.90
24103;DHT22;12278;53.058;9.028;2024-01-30T06:26:43;5.30;99.90
24103;DHT22;12278;53.058;9.028;2024-01-30T06:30:44;5.30;99.90
24103;DHT22;12278;53.058;9.028;2024-01-30T06:34:45;5.30;99.90
24103;DHT22;12278;53.058;9.028;2024-01-30T06:38:45;5.30;99.90
24103;DHT22;12278;53.058;9.028;2024-01-30T06:42:46;5.20;99.90
24103;DHT22;12278;53.058;9.028;2024-01-30T06:46:47;5.30;99.90
24103;DHT22;12278;53.058;9.028;2024-01-30T06:50:47;5.30;99.90
24103;DHT22;12278;53.058;9.028;2024-01-30T06:54:49;5.30;99.90
24103;DHT22;12278;53.058;9.028;2024-01-30T06:58:50;5.40;99.90
24103;DHT22;12278;53.058;9.028;2024-01-30T07:02:51;5.50;99.90
24103;DHT22;12278;53.058;9.028;2024-01-30T07:06:51;5.50;99.90
24103;DHT22;12278;53.058;9.028;2024-01-30T07:10:53;5.50;99.90
24103;DHT22;12278;53.058;9.028;2024-01-30T07:14:55;5.50;99.90
24103;DHT22;12278;53.058;9.028;2024-01-30T07:18:56;5.50;99.90
24103;DHT22;12278;53.058;9.028;2024-01-30T07:23:00;5.50;99.90
24103;DHT22;12278;53.058;9.028;2024-01-30T07:27:01;5.50;99.90
24103;DHT22;12278;53.058;9.028;2024-01-30T07:31:02;5.60;99.90
24103;DHT22;12278;53.058;9.028;2024-01-30T07:35:04;5.70;99.90
24103;DHT22;12278;53.058;9.028;2024-01-30T07:39:04;5.70;99.90
24103;DHT22;12278;53.058;9.028;2024-01-30T07:43:05;5.70;99.90
24103;DHT22;12278;53.058;9.028;2024-01-30T07:47:06;5.80;99.90
24103;DHT22;12278;53.058;9.028;2024-01-30T07:51:06;5.80;99.90
24103;DHT22;12278;53.058;9.028;2024-01-30T07:55:07;5.90;99.90
24103;DHT22;12278;53.058;9.028;2024-01-30T07:59:11;6.00;99.90
24103;DHT22;12278;53.058;9.028;2024-01-30T08:03:12;6.00;99.90
24103;DHT22;12278;53.058;9.028;2024-01-30T08:07:13;6.00;99.90
24103;DHT22;12278;53.058;9.028;2024-01-30T08:11:13;6.10;99.90
24103;DHT22;12278;53.058;9.028;2024-01-30T08:15:14;6.20;99.90
24103;DHT22;12278;53.058;9.028;2024-01-30T08:19:15;6.40;99.90
24103;DHT22;12278;53.058;9.028;2024-01-30T08:23:16;6.40;99.90
24103;DHT22;12278;53.058;9.028;2024-01-30T08:27:16;6.50;99.90
24103;DHT22;12278;53.058;9.028;2024-01-30T08:31:17;6.60;99.90
24103;DHT22;12278;53.058;9.028;2024-01-30T08:35:18;6.60;99.90
24103;DHT22;12278;53.058;9.028;2024-01-30T08:39:18;6.70;99.90
24103;DHT22;12278;53.058;9.028;2024-01-30T08:43:19;6.80;99.90
24103;DHT22;12278;53.058;9.028;2024-01-30T08:47:20;6.80;99.90
24103;DHT22;12278;53.058;9.028;2024-01-30T08:51:20;6.90;99.90
24103;DHT22;12278;53.058;9.028;2024-01-30T08:55:21;7.10;99.90
24103;DHT22;12278;53.058;9.028;2024-01-30T08:59:22;7.20;99.90
24103;DHT22;12278;53.058;9.028;2024-01-30T09:03:22;7.30;99.90
24103;DHT22;12278;53.058;9.028;2024-01-30T09:07:23;7.40;99.90
24103;DHT22;12278;53.058;9.028;2024-01-30T09:11:24;7.70;99.90
24103;DHT22;12278;53.058;9.028;2024-01-30T09:15:24;7.80;99.90
24103;DHT22;12278;53.058;9.028;2024-01-30T09:19:25;7.90;99.90
24103;DHT22;12278;53.058;9.028;2024-01-30T09:23:27;8.00;99.90
24103;DHT22;12278;53.058;9.028;2024-01-30T09:27:28;8.00;99.90
24103;DHT22;12278;53.058;9.028;2024-01-30T09:31:29;8.10;99.90
24103;DHT22;12278;53.058;9.028;2024-01-30T09:35:29;8.10;99.90
24103;DHT22;12278;53.058;9.028;2024-01-30T09:39:30;8.10;99.90
24103;DHT22;12278;53.058;9.028;2024-01-30T09:43:33;8.20;99.90
24103;DHT22;12278;53.058;9.028;2024-01-30T09:47:42;8.20;99.90
24103;DHT22;12278;53.058;9.028;2024-01-30T09:51:44;8.30;99.90
24103;DHT22;12278;53.058;9.028;2024-01-30T09:55:45;8.30;99.90
24103;DHT22;12278;53.058;9.028;2024-01-30T09:59:47;8.40;99.90
24103;DHT22;12278;53.058;9.028;2024-01-30T10:03:50;8.40;99.90
24103;DHT22;12278;53.058;9.028;2024-01-30T10:07:53;8.40;99.90
24103;DHT22;12278;53.058;9.028;2024-01-30T10:11:55;8.40;99.90
24103;DHT22;12278;53.058;9.028;2024-01-30T10:15:55;8.40;99.90
24103;DHT22;12278;53.058;9.028;2024-01-30T10:19:57;8.50;99.90
24103;DHT22;12278;53.058;9.028;2024-01-30T10:23:57;8.50;99.90
24103;DHT22;12278;53.058;9.028;2024-01-30T10:27:59;8.60;99.90
24103;DHT22;12278;53.058;9.028;2024-01-30T10:32:01;8.60;99.90
24103;DHT22;12278;53.058;9.028;2024-01-30T10:36:04;8.60;99.90
24103;DHT22;12278;53.058;9.028;2024-01-30T10:40:05;8.70;99.90
24103;DHT22;12278;53.058;9.028;2024-01-30T10:44:11;8.70;99.90
24103;DHT22;12278;53.058;9.028;2024-01-30T10:48:13;8.60;99.90
24103;DHT22;12278;53.058;9.028;2024-01-30T10:52:14;8.70;99.90
24103;DHT22;12278;53.058;9.028;2024-01-30T10:56:18;8.70;99.90
24103;DHT22;12278;53.058;9.028;2024-01-30T11:00:21;8.90;99.90
24103;DHT22;12278;53.058;9.028;2024-01-30T11:04:24;9.00;99.90
24103;DHT22;12278;53.058;9.028;2024-01-30T11:08:25;9.30;99.90
24103;DHT22;12278;53.058;9.028;2024-01-30T11:12:30;9.60;99.90
24103;DHT22;12278;53.058;9.028;2024-01-30T11:16:32;9.90;99.90
24103;DHT22;12278;53.058;9.028;2024-01-30T11:20:33;10.40;99.90
24103;DHT22;12278;53.058;9.028;2024-01-30T11:24:42;10.30;99.90
24103;DHT22;12278;53.058;9.028;2024-01-30T11:28:43;10.20;99.90
24103;DHT22;12278;53.058;9.028;2024-01-30T11:33:05;10.10;99.90
24103;DHT22;12278;53.058;9.028;2024-01-30T11:37:09;10.00;99.90
24103;DHT22;12278;53.058;9.028;2024-01-30T11:41:13;10.00;99.90
24103;DHT22;12278;53.058;9.028;2024-01-30T11:45:14;10.10;99.90
24103;DHT22;12278;53.058;9.028;2024-01-30T11:49:16;10.10;99.90
24103;DHT22;12278;53.058;9.028;2024-01-30T11:53:18;10.10;99.90
24103;DHT22;12278;53.058;9.028;2024-01-30T11:57:18;10.20;99.90
24103;DHT22;12278;53.058;9.028;2024-01-30T12:01:19;10.20;99.90
24103;DHT22;12278;53.058;9.028;2024-01-30T12:05:19;10.20;99.90
24103;DHT22;12278;53.058;9.028;2024-01-30T12:09:20;10.10;99.90
24103;DHT22;12278;53.058;9.028;2024-01-30T12:13:22;10.10;99.90
24103;DHT22;12278;53.058;9.028;2024-01-30T12:17:29;10.00;99.90
24103;DHT22;12278;53.058;9.028;2024-01-30T12:21:30;9.90;99.90
24103;DHT22;12278;53.058;9.028;2024-01-30T12:25:31;10.00;99.90
24103;DHT22;12278;53.058;9.028;2024-01-30T12:29:32;10.00;99.90
24103;DHT22;12278;53.058;9.028;2024-01-30T12:33:33;10.00;99.90
24103;DHT22;12278;53.058;9.028;2024-01-30T12:37:36;10.10;99.90
24103;DHT22;12278;53.058;9.028;2024-01-30T12:41:37;10.10;99.90
24103;DHT22;12278;53.058;9.028;2024-01-30T12:45:38;10.10;99.90
24103;DHT22;12278;53.058;9.028;2024-01-30T12:49:38;10.10;99.90
24103;DHT22;12278;53.058;9.028;2024-01-30T12:53:39;10.20;99.90
24103;DHT22;12278;53.058;9.028;2024-01-30T12:57:39;10.30;99.90
24103;DHT22;12278;53.058;9.028;2024-01-30T13:01:40;10.40;99.90
24103;DHT22;12278;53.058;9.028;2024-01-30T13:05:41;10.40;99.90
24103;DHT22;12278;53.058;9.028;2024-01-30T13:09:41;10.40;99.90
24103;DHT22;12278;53.058;9.028;2024-01-30T13:13:42;10.40;99.90
24103;DHT22;12278;53.058;9.028;2024-01-30T13:17:43;10.40;99.90
24103;DHT22;12278;53.058;9.028;2024-01-30T13:21:44;10.50;99.90
24103;DHT22;12278;53.058;9.028;2024-01-30T13:25:45;10.40;99.90
24103;DHT22;12278;53.058;9.028;2024-01-30T13:29:45;10.50;99.90
24103;DHT22;12278;53.058;9.028;2024-01-30T13:33:46;10.50;99.90
24103;DHT22;12278;53.058;9.028;2024-01-30T13:37:47;10.40;99.90
24103;DHT22;12278;53.058;9.028;2024-01-30T13:41:49;10.50;99.90
24103;DHT22;12278;53.058;9.028;2024-01-30T13:45:50;10.50;99.90
24103;DHT22;12278;53.058;9.028;2024-01-30T13:49:51;10.50;99.90
24103;DHT22;12278;53.058;9.028;2024-01-30T13:53:53;10.60;99.90
24103;DHT22;12278;53.058;9.028;2024-01-30T13:57:54;10.60;99.90
24103;DHT22;12278;53.058;9.028;2024-01-30T14:01:56;10.70;99.90
24103;DHT22;12278;53.058;9.028;2024-01-30T14:05:56;10.80;99.90
24103;DHT22;12278;53.058;9.028;2024-01-30T14:09:57;10.80;99.90
24103;DHT22;12278;53.058;9.028;2024-01-30T14:13:58;10.90;99.90
24103;DHT22;12278;53.058;9.028;2024-01-30T14:17:58;11.00;99.90
24103;DHT22;12278;53.058;9.028;2024-01-30T14:21:59;11.00;99.90
24103;DHT22;12278;53.058;9.028;2024-01-30T14:25:59;11.00;99.90
24103;DHT22;12278;53.058;9.028;2024-01-30T14:30:00;11.10;99.90
24103;DHT22;12278;53.058;9.028;2024-01-30T14:34:01;11.10;99.90
24103;DHT22;12278;53.058;9.028;2024-01-30T14:38:01;11.20;99.90
24103;DHT22;12278;53.058;9.028;2024-01-30T14:42:04;11.30;99.90
24103;DHT22;12278;53.058;9.028;2024-01-30T14:46:05;11.40;99.90
24103;DHT22;12278;53.058;9.028;2024-01-30T14:50:07;11.40;99.90
24103;DHT22;12278;53.058;9.028;2024-01-30T14:54:08;11.40;99.90
24103;DHT22;12278;53.058;9.028;2024-01-30T14:58:08;11.60;99.90
24103;DHT22;12278;53.058;9.028;2024-01-30T15:02:09;12.30;99.90
24103;DHT22;12278;53.058;9.028;2024-01-30T15:06:12;12.50;99.90
24103;DHT22;12278;53.058;9.028;2024-01-30T15:10:13;12.20;99.90
24103;DHT22;12278;53.058;9.028;2024-01-30T15:14:14;11.80;99.90
24103;DHT22;12278;53.058;9.028;2024-01-30T15:18:15;11.50;99.90
24103;DHT22;12278;53.058;9.028;2024-01-30T15:22:16;11.40;99.90
24103;DHT22;12278;53.058;9.028;2024-01-30T15:26:16;11.20;99.90
24103;DHT22;12278;53.058;9.028;2024-01-30T15:30:17;11.20;99.90
24103;DHT22;12278;53.058;9.028;2024-01-30T15:34:19;11.10;99.90
24103;DHT22;12278;53.058;9.028;2024-01-30T15:38:21;11.10;99.90
24103;DHT22;12278;53.058;9.028;2024-01-30T15:42:21;11.10;99.90
24103;DHT22;12278;53.058;9.028;2024-01-30T15:46:22;11.10;99.90
24103;DHT22;12278;53.058;9.028;2024-01-30T15:50:23;11.00;99.90
24103;DHT22;12278;53.058;9.028;2024-01-30T15:54:24;11.00;99.90
24103;DHT22;12278;53.058;9.028;2024-01-30T15:58:24;11.00;99.90
24103;DHT22;12278;53.058;9.028;2024-01-30T16:02:26;11.00;99.90
24103;DHT22;12278;53.058;9.028;2024-01-30T16:06:28;11.10;99.90
24103;DHT22;12278;53.058;9.028;2024-01-30T16:10:28;11.00;99.90
24103;DHT22;12278;53.058;9.028;2024-01-30T16:14:29;11.00;99.90
24103;DHT22;12278;53.058;9.028;2024-01-30T16:18:30;11.10;99.90
24103;DHT22;12278;53.058;9.028;2024-01-30T16:22:32;11.10;99.90
24103;DHT22;12278;53.058;9.028;2024-01-30T16:26:32;11.10;99.90
24103;DHT22;12278;53.058;9.028;2024-01-30T16:30:33;11.20;99.90
24103;DHT22;12278;53.058;9.028;2024-01-30T16:34:34;11.10;99.90
24103;DHT22;12278;53.058;9.028;2024-01-30T16:38:34;11.20;99.90
24103;DHT22;12278;53.058;9.028;2024-01-30T16:42:35;11.10;99.90
24103;DHT22;12278;53.058;9.028;2024-01-30T16:46:36;11.20;99.90
24103;DHT22;12278;53.058;9.028;2024-01-30T16:50:38;11.20;99.90
24103;DHT22;12278;53.058;9.028;2024-01-30T16:54:38;11.20;99.90
24103;DHT22;12278;53.058;9.028;2024-01-30T16:58:39;11.10;99.90
24103;DHT22;12278;53.058;9.028;2024-01-30T17:02:40;11.10;99.90
24103;DHT22;12278;53.058;9.028;2024-01-30T17:06:41;11.10;99.90
24103;DHT22;12278;53.058;9.028;2024-01-30T17:10:41;11.10;99.90
24103;DHT22;12278;53.058;9.028;2024-01-30T17:14:42;11.10;99.90
24103;DHT22;12278;53.058;9.028;2024-01-30T17:18:42;11.10;99.90
24103;DHT22;12278;53.058;9.028;2024-01-30T17:22:43;11.10;99.90
24103;DHT22;12278;53.058;9.028;2024-01-30T17:26:44;11.10;99.90
24103;DHT22;12278;53.058;9.028;2024-01-30T17:30:44;11.10;99.90
24103;DHT22;12278;53.058;9.028;2024-01-30T17:34:45;11.00;99.90
24103;DHT22;12278;53.058;9.028;2024-01-30T17:38:45;10.90;99.90
24103;DHT22;12278;53.058;9.028;2024-01-30T17:42:47;10.80;99.90
24103;DHT22;12278;53.058;9.028;2024-01-30T17:46:49;10.80;99.90
24103;DHT22;12278;53.058;9.028;2024-01-30T17:50:50;10.80;99.90
24103;DHT22;12278;53.058;9.028;2024-01-30T17:54:51;10.70;99.90
24103;DHT22;12278;53.058;9.028;2024-01-30T17:58:52;10.60;99.90
24103;DHT22;12278;53.058;9.028;2024-01-30T18:02:53;10.60;99.90
24103;DHT22;12278;53.058;9.028;2024-01-30T18:06:56;10.60;99.90
24103;DHT22;12278;53.058;9.028;2024-01-30T18:10:56;10.50;99.90
24103;DHT22;12278;53.058;9.028;2024-01-30T18:14:57;10.50;99.90
24103;DHT22;12278;53.058;9.028;2024-01-30T18:18:57;10.50;99.90
24103;DHT22;12278;53.058;9.028;2024-01-30T18:22:58;10.40;99.90
24103;DHT22;12278;53.058;9.028;2024-01-30T18:26:59;10.40;99.90
24103;DHT22;12278;53.058;9.028;2024-01-30T18:30:59;10.30;99.90
24103;DHT22;12278;53.058;9.028;2024-01-30T18:35:00;10.30;99.90
24103;DHT22;12278;53.058;9.028;2024-01-30T18:39:01;10.20;99.90
24103;DHT22;12278;53.058;9.028;2024-01-30T18:43:02;10.20;99.90
24103;DHT22;12278;53.058;9.028;2024-01-30T18:47:04;10.10;99.90
24103;DHT22;12278;53.058;9.028;2024-01-30T18:51:05;10.00;99.90
24103;DHT22;12278;53.058;9.028;2024-01-30T18:55:06;10.00;99.90
24103;DHT22;12278;53.058;9.028;2024-01-30T18:59:07;10.00;99.90
24103;DHT22;12278;53.058;9.028;2024-01-30T19:03:08;9.90;99.90
24103;DHT22;12278;53.058;9.028;2024-01-30T19:07:08;9.90;99.90
24103;DHT22;12278;53.058;9.028;2024-01-30T19:11:19;9.80;99.90
24103;DHT22;12278;53.058;9.028;2024-01-30T19:15:20;9.80;99.90
24103;DHT22;12278;53.058;9.028;2024-01-30T19:19:21;9.70;99.90
24103;DHT22;12278;53.058;9.028;2024-01-30T19:23:22;9.60;99.90
24103;DHT22;12278;53.058;9.028;2024-01-30T19:27:22;9.60;99.90
24103;DHT22;12278;53.058;9.028;2024-01-30T19:31:23;9.50;99.90
24103;DHT22;12278;53.058;9.028;2024-01-30T19:35:24;9.50;99.90
24103;DHT22;12278;53.058;9.028;2024-01-30T19:39:26;9.50;99.90
24103;DHT22;12278;53.058;9.028;2024-01-30T19:43:28;9.40;99.90
24103;DHT22;12278;53.058;9.028;2024-01-30T19:47:28;9.50;99.90
24103;DHT22;12278;53.058;9.028;2024-01-30T19:51:29;9.40;99.90
24103;DHT22;12278;53.058;9.028;2024-01-30T19:55:30;9.40;99.90
24103;DHT22;12278;53.058;9.028;2024-01-30T19:59:32;9.30;99.90
24103;DHT22;12278;53.058;9.028;2024-01-30T20:03:36;9.10;99.90
24103;DHT22;12278;53.058;9.028;2024-01-30T20:07:37;9.00;99.90
24103;DHT22;12278;53.058;9.028;2024-01-30T20:11:38;8.90;99.90
24103;DHT22;12278;53.058;9.028;2024-01-30T20:15:39;8.80;99.90
24103;DHT22;12278;53.058;9.028;2024-01-30T20:19:43;8.80;99.90
24103;DHT22;12278;53.058;9.028;2024-01-30T20:23:44;8.80;99.90
24103;DHT22;12278;53.058;9.028;2024-01-30T20:27:45;8.80;99.90
24103;DHT22;12278;53.058;9.028;2024-01-30T20:31:47;8.80;99.90
24103;DHT22;12278;53.058;9.028;2024-01-30T20:35:48;8.80;99.90
24103;DHT22;12278;53.058;9.028;2024-01-30T20:39:49;8.70;99.90
24103;DHT22;12278;53.058;9.028;2024-01-30T20:43:49;8.60;99.90
24103;DHT22;12278;53.058;9.028;2024-01-30T20:47:50;8.50;99.90
24103;DHT22;12278;53.058;9.028;2024-01-30T20:51:50;8.50;99.90
24103;DHT22;12278;53.058;9.028;2024-01-30T20:55:51;8.40;99.90
24103;DHT22;12278;53.058;9.028;2024-01-30T20:59:52;8.40;99.90
24103;DHT22;12278;53.058;9.028;2024-01-30T21:03:52;8.30;99.90
24103;DHT22;12278;53.058;9.028;2024-01-30T21:07:54;8.30;99.90
24103;DHT22;12278;53.058;9.028;2024-01-30T21:11:55;8.20;99.90
24103;DHT22;12278;53.058;9.028;2024-01-30T21:15:55;8.10;99.90
24103;DHT22;12278;53.058;9.028;2024-01-30T21:19:56;8.10;99.90
24103;DHT22;12278;53.058;9.028;2024-01-30T21:23:56;8.00;99.90
24103;DHT22;12278;53.058;9.028;2024-01-30T21:27:57;8.00;99.90
24103;DHT22;12278;53.058;9.028;2024-01-30T21:31:57;7.90;99.90
24103;DHT22;12278;53.058;9.028;2024-01-30T21:35:58;7.90;99.90
24103;DHT22;12278;53.058;9.028;2024-01-30T21:39:59;7.90;99.90
24103;DHT22;12278;53.058;9.028;2024-01-30T21:44:00;7.90;99.90
24103;DHT22;12278;53.058;9.028;2024-01-30T21:48:00;7.90;99.90
24103;DHT22;12278;53.058;9.028;2024-01-30T21:52:01;7.80;99.90
24103;DHT22;12278;53.058;9.028;2024-01-30T21:56:05;7.70;99.90
24103;DHT22;12278;53.058;9.028;2024-01-30T22:00:06;7.70;99.90
24103;DHT22;12278;53.058;9.028;2024-01-30T22:04:07;7.60;99.90
24103;DHT22;12278;53.058;9.028;2024-01-30T22:08:08;7.50;99.90
24103;DHT22;12278;53.058;9.028;2024-01-30T22:12:08;7.50;99.90
24103;DHT22;12278;53.058;9.028;2024-01-30T22:16:09;7.50;99.90
24103;DHT22;12278;53.058;9.028;2024-01-30T22:20:10;7.40;99.90
24103;DHT22;12278;53.058;9.028;2024-01-30T22:24:10;7.50;99.90
24103;DHT22;12278;53.058;9.028;2024-01-30T22:28:11;7.40;99.90
24103;DHT22;12278;53.058;9.028;2024-01-30T22:32:12;7.40;99.90
24103;DHT22;12278;53.058;9.028;2024-01-30T22:36:12;7.30;99.90
24103;DHT22;12278;53.058;9.028;2024-01-30T22:40:13;7.40;99.90
24103;DHT22;12278;53.058;9.028;2024-01-30T22:44:13;7.30;99.90
24103;DHT22;12278;53.058;9.028;2024-01-30T22:48:14;7.30;99.90
24103;DHT22;12278;53.058;9.028;2024-01-30T22:52:14;7.30;99.90
24103;DHT22;12278;53.058;9.028;2024-01-30T22:56:15;7.20;99.90
24103;DHT22;12278;53.058;9.028;2024-01-30T23:00:16;7.20;99.90
24103;DHT22;12278;53.058;9.028;2024-01-30T23:04:21;7.20;99.90
24103;DHT22;12278;53.058;9.028;2024-01-30T23:08:22;7.20;99.90
24103;DHT22;12278;53.058;9.028;2024-01-30T23:12:23;7.10;99.90
24103;DHT22;12278;53.058;9.028;2024-01-30T23:16:23;7.10;99.90
24103;DHT22;12278;53.058;9.028;2024-01-30T23:20:24;7.00;99.90
24103;DHT22;12278;53.058;9.028;2024-01-30T23:24:24;7.00;99.90
24103;DHT22;12278;53.058;9.028;2024-01-30T23:28:25;6.90;99.90
24103;DHT22;12278;53.058;9.028;2024-01-30T23:32:25;6.90;99.90
24103;DHT22;12278;53.058;9.028;2024-01-30T23:36:26;6.80;99.90
24103;DHT22;12278;53.058;9.028;2024-01-30T23:40:26;6.70;99.90
24103;DHT22;12278;53.058;9.028;2024-01-30T23:44:27;6.70;99.90
24103;DHT22;12278;53.058;9.028;2024-01-30T23:48:27;6.80;99.90
24103;DHT22;12278;53.058;9.028;2024-01-30T23:52:28;6.80;99.90
24103;DHT22;12278;53.058;9.028;2024-01-30T23:56:28;6.70;99.90
